Главная страница
METAR-TAF:

METAR-TAF

Аэропорты :

Минеральные Воды, Россия

широта: 44-14N, долгота: 043-04E, высота над уровнем моря: 314 м

Текущие метеонаблюдения

Эта сводка был подготовлена 36 минут назад, в 19:00 UTC
Ветер 14 Узел от восточно-юго-восточный
Температура 8°C
Влажность 61%
Давление 1028 hPa
Видимость 10 км и более

METAR: URMM 261900Z 12007MPS 9999 NSC 08/01 Q1028 R12/000070 NOSIG RMK QFE742/0990

Время: 22:36 (19:36 UTC)

Прогноз

Эта сводка был подготовлена 2 часа и 36 минут назад, в 17:00 UTC
Прогноз действительный с 26-го 18 UTC до 27-го 18 UTC
Ветер 8 Узел от восточный с порывами до 17 Узел
Видимость 10 км и более
временами
С 26-го 21 UTC до 27-го 06 UTC
Видимость: 3100 м
Рассеянная облачность на высоте 1100 фута
дымка
временами
С 27-го 06 UTC до 27-го 15 UTC
Ветер 14 Узел от восточно-юго-восточный с порывами до 27 Узел

TAF: URMM 261700Z 2618/2718 10004G09MPS 9999 NSC TX17/2712Z TN01/2703Z TEMPO 2621/2706 3100 BR BKN011 TEMPO 2706/2715 11007G14MPS

Метеонаблюдения и прогнозы для более 4000 аэропортов (сводки METAR и TAF).

Имеющиеся станции представлены на карте желтыми и красными точками.

Чтобы увидеть название станции, наведите на нее мышь.

Затем щелкните, чтобы увидеть метеонаблюдения и метеопрогнозы.

Управление картой: чтобы увеличить масштаб, щелкните зеленые кнопки с черным крестиком; чтобы уменьшить масштаб, щелкните зеленую кнопку с тире; для просмотра соседних карт щелкайте зеленые стрелки.


METAR-TAF: